Al Taji, Iraq

2:28 PM AST on July 10, 2014 (GMT +0300)
BAGHDAD INTL (ORBI) Elev 115 ft | 33.26 °N, 44.23 °E | Change Station

Current weather conditions updated 28 minutes ago

Clear
Clear
109 °F
Feels Like 109 °F
N
15
Wind Variable Wind from WNW
Gusts 31 mph

Today is forecast to be nearly the same temperature as yesterday.

Today
High -- | Low -- °F
--% Chance of Precip.
Yesterday
High -- | Low -- °F
Precip. -- in
5:00 AM 7:15 PM
Waxing Gibbous, 94% visible
Pressure 29.56 in
Visibility -9999.0 miles
Clouds
Dew Point 52 °F
Humidity 15%
Rainfall 0.00 in
Snow Depth Not available.
UV Not available.
Pollen Not available.
Air Quality Not available.
Flu Activity Not available.
METAR ORBI 101100Z 30013G27KT 270V330 CAVOK 43/11 Q1001 NOSIG

More Conditions Fewer Conditions

Pressure 29.56 in
Visibility -9999.0 miles
Clouds
Dew Point 52 °F
Humidity 15%
Rainfall 0.00 in
Snow Depth Not available.
UV Not available.
Pollen Not available.
Air Quality Not available.
Flu Activity Not available.
METAR ORBI 101100Z 30013G27KT 270V330 CAVOK 43/11 Q1001 NOSIG

More Conditions Fewer Conditions

10-Day Weather Forecast

Almanac

Astronomy

Jul. 10, 2014 Rise Set
Actual Time 5:00 AM AST 7:15 PM AST
Civil Twilight 4:32 AM AST 7:44 PM AST
Nautical Twilight 3:57 AM AST 8:18 PM AST
Astronomical Twilight 3:19 AM AST 8:56 PM AST
Moon 5:08 PM AST 2:48 AM AST
Length of Visible Light 15h 11m
Length of Day
14h 14m
Tomorrow will be 0m 51s shorter.
Waxing Gibbous, 94% of the Moon is Illuminated
Today
Waxing Gibbous
Jul 12
Full
Jul 18
Last Quarter
Jul 26
New
Aug 3
First Quarter

Yesterday's Extremes

Country Highs Country Lows

Community

WunderPhotos

Upload Photos

1,732,096 photos uploaded!

Nearby

Snow Depth

Not available.

Earthquake Activity

City Distance Mag. Time & Date
No recent earthquake activity has been reported nearby.
Minimum magnitude displayed is 2.5.

Coastal Water Temperatures

Place Temperature
No Stations Reporting

Nearby Weather Stations

There are no personal weather stations in this area.